createdAt,value
2017-09-02T00:00:02.375Z,93.81
2017-09-02T00:05:02.776Z,93.81
2017-09-02T00:10:02.994Z,94.35
2017-09-02T00:15:02.304Z,94.12
2017-09-02T00:20:02.460Z,94.67
2017-09-02T00:25:02.747Z,94.83
2017-09-02T00:30:02.964Z,94.19
2017-09-02T00:35:02.182Z,94.14
2017-09-02T00:40:02.469Z,93.52
2017-09-02T00:45:02.766Z,93.54
2017-09-02T00:50:02.615Z,93.86
2017-09-02T00:55:02.812Z,94.96
2017-09-02T01:00:01.990Z,94.77
2017-09-02T01:05:02.023Z,94.06
2017-09-02T01:10:02.268Z,94.2
2017-09-02T01:15:02.492Z,93.58
2017-09-02T01:20:02.091Z,94.42
2017-09-02T01:25:02.274Z,94.76
2017-09-02T01:30:02.471Z,95.31
2017-09-02T01:35:02.216Z,95.89
2017-09-02T01:40:02.407Z,95.02
2017-09-02T01:45:02.665Z,95.44
2017-09-02T01:50:02.201Z,95.63
2017-09-02T01:55:02.391Z,95.65
2017-09-02T02:00:02.621Z,95.76
2017-09-02T02:05:02.428Z,96.47
2017-09-02T02:10:02.686Z,96.87
2017-09-02T02:15:02.930Z,96.12
2017-09-02T02:20:02.808Z,96.47
2017-09-02T02:25:03.046Z,96.31
2017-09-02T02:30:02.307Z,96.12
2017-09-02T02:35:02.747Z,96.43
2017-09-02T02:40:02.965Z,95.52
2017-09-02T02:45:02.277Z,96.11
2017-09-02T02:50:02.201Z,96.21
2017-09-02T02:55:02.428Z,96.62
2017-09-02T03:00:02.714Z,96.33
2017-09-02T03:05:02.172Z,97.16
2017-09-02T03:10:02.436Z,97.22
2017-09-02T03:15:02.717Z,97.31
2017-09-02T03:20:02.812Z,96.99
2017-09-02T03:25:02.046Z,96.84
2017-09-02T03:30:02.241Z,97.47
2017-09-02T03:35:02.815Z,96.54
2017-09-02T03:40:02.044Z,96.09
2017-09-02T03:45:02.320Z,96.92
2017-09-02T03:50:02.700Z,96.29
2017-09-02T03:55:02.939Z,97.34
2017-09-02T04:00:02.103Z,97.76
2017-09-02T04:05:02.579Z,97.76
2017-09-02T04:10:02.757Z,97.63
2017-09-02T04:15:02.975Z,97.76
2017-09-02T04:20:02.269Z,97.81
2017-09-02T04:25:02.522Z,97.94
2017-09-02T04:30:02.768Z,97.6
2017-09-02T04:35:02.595Z,97.4
2017-09-02T04:40:02.785Z,97.98
2017-09-02T04:45:03.016Z,97.26
2017-09-02T04:50:02.308Z,96.86
2017-09-02T04:55:02.509Z,96.93
2017-09-02T05:00:02.716Z,96.58
2017-09-02T05:05:02.317Z,97.91
2017-09-02T05:10:02.552Z,98.05
2017-09-02T05:15:02.780Z,97.91
2017-09-02T05:20:02.980Z,97.64
2017-09-02T05:25:02.210Z,97.89
2017-09-02T05:30:02.412Z,97.83
2017-09-02T05:35:02.876Z,97.21
2017-09-02T05:40:02.054Z,99.17
2017-09-02T05:45:02.307Z,97.23
2017-09-02T05:50:02.843Z,98.79
2017-09-02T05:55:02.078Z,98.81
2017-09-02T06:00:02.281Z,98.13
2017-09-02T06:05:02.051Z,98.69
2017-09-02T06:10:02.366Z,98.15
2017-09-02T06:15:02.560Z,97.96
2017-09-02T06:20:02.255Z,98.11
2017-09-02T06:25:02.448Z,98.62
2017-09-02T06:30:02.649Z,97.31
2017-09-02T06:35:02.922Z,97.33
2017-09-02T06:40:02.129Z,97.24
2017-09-02T06:45:02.387Z,98.05
2017-09-02T06:50:02.897Z,97.69
2017-09-02T06:55:02.078Z,97.75
2017-09-02T07:00:02.312Z,97.52
2017-09-02T07:05:02.078Z,97.31
2017-09-02T07:10:02.295Z,97.11
2017-09-02T07:15:02.482Z,97.56
2017-09-02T07:20:02.741Z,96.93
2017-09-02T07:25:02.992Z,97.02
2017-09-02T07:30:02.237Z,96.41
2017-09-02T07:35:02.695Z,96.25
2017-09-02T07:40:02.911Z,96.09
2017-09-02T07:45:02.091Z,95.94
2017-09-02T07:50:02.697Z,95.83
2017-09-02T07:55:02.916Z,95.43
2017-09-02T08:00:02.067Z,95.06
2017-09-02T08:05:02.469Z,94.99
2017-09-02T08:10:02.671Z,94.53
2017-09-02T08:15:02.916Z,94.02
2017-09-02T08:20:02.679Z,94.1
2017-09-02T08:25:02.896Z,94.06
2017-09-02T08:30:02.063Z,93.91
2017-09-02T08:35:02.315Z,92.66
2017-09-02T08:40:02.559Z,91.97
2017-09-02T08:45:02.740Z,91.5
2017-09-02T08:50:02.884Z,91.28
2017-09-02T08:55:02.053Z,88.68
2017-09-02T09:00:02.249Z,87.6
2017-09-02T09:05:02.272Z,87.22
2017-09-02T09:10:02.486Z,86.44
2017-09-02T09:15:02.720Z,85.41
2017-09-02T09:20:02.377Z,84.27
2017-09-02T09:25:02.648Z,80.24
2017-09-02T09:30:02.852Z,82.96
2017-09-02T09:35:02.302Z,83.79
2017-09-02T09:40:02.537Z,80.28
2017-09-02T09:45:02.722Z,80.77
2017-09-02T09:50:02.038Z,82.9
2017-09-02T09:55:02.282Z,82.94
2017-09-02T10:00:02.470Z,83.21
2017-09-02T10:05:03.033Z,83.76
2017-09-02T10:10:02.242Z,83.65
2017-09-02T10:15:02.476Z,83.83
2017-09-02T10:20:02.768Z,83.34
2017-09-02T10:25:02.989Z,83.27
2017-09-02T10:30:02.171Z,82.86
2017-09-02T10:35:02.180Z,84.51
2017-09-02T10:40:02.367Z,82.64
2017-09-02T10:45:02.587Z,83.39
2017-09-02T10:50:02.127Z,83.02
2017-09-02T10:55:02.348Z,78.45
2017-09-02T11:00:02.553Z,74.62
2017-09-02T11:05:02.912Z,73.97
2017-09-02T11:10:02.070Z,73.1
2017-09-02T11:15:02.341Z,71.34
2017-09-02T11:20:02.656Z,71.87
2017-09-02T11:25:02.873Z,71.13
2017-09-02T11:30:02.058Z,65.06
2017-09-02T11:35:02.444Z,65.83
2017-09-02T11:40:02.713Z,64.96
2017-09-02T11:45:02.959Z,65.39
2017-09-02T11:50:02.133Z,64.28
2017-09-02T11:55:02.409Z,61.87
2017-09-02T12:00:02.603Z,66.7
2017-09-02T12:05:03.000Z,65.96
2017-09-02T12:10:02.259Z,66.94
2017-09-02T12:15:02.469Z,63.63
2017-09-02T12:20:02.811Z,64.38
2017-09-02T12:25:02.023Z,65.05
2017-09-02T12:30:02.263Z,62.81
2017-09-02T12:35:02.106Z,64.59
2017-09-02T12:40:02.350Z,65.69
2017-09-02T12:45:02.560Z,63.52
2017-09-02T12:50:02.316Z,63.61
2017-09-02T12:55:02.530Z,63.92
2017-09-02T13:00:02.728Z,66.5
2017-09-02T13:05:02.313Z,66.07
2017-09-02T13:10:02.504Z,68.13
2017-09-02T13:15:02.746Z,69.47
2017-09-02T13:20:02.965Z,68.73
2017-09-02T13:25:02.138Z,68.67
2017-09-02T13:30:02.380Z,67.76
2017-09-02T13:35:02.052Z,70.4
2017-09-02T13:40:02.303Z,66.64
2017-09-02T13:45:02.519Z,68.27
2017-09-02T13:50:02.557Z,68.46
2017-09-02T13:55:02.772Z,71.09
2017-09-02T14:00:02.997Z,67.64
2017-09-02T14:05:02.841Z,69.27
2017-09-02T14:10:02.037Z,66
2017-09-02T14:15:02.259Z,65.53
2017-09-02T14:20:02.257Z,65.32
2017-09-02T14:25:02.671Z,62.98
2017-09-02T14:30:02.904Z,65.06
2017-09-02T14:35:02.429Z,65.65
2017-09-02T14:40:02.622Z,63.45
2017-09-02T14:45:02.838Z,64.84
2017-09-02T14:50:02.237Z,59.14
2017-09-02T14:55:02.471Z,59.13
2017-09-02T15:00:02.674Z,64.32
2017-09-02T15:05:02.029Z,61.49
2017-09-02T15:10:02.257Z,64.55
2017-09-02T15:15:02.487Z,66.1
2017-09-02T15:20:02.734Z,65.8
2017-09-02T15:25:02.940Z,66.74
2017-09-02T15:30:02.130Z,63.71
2017-09-02T15:35:02.600Z,63.38
2017-09-02T15:40:02.814Z,63.43
2017-09-02T15:45:02.234Z,66.75
2017-09-02T15:50:02.014Z,65.61
2017-09-02T15:55:02.255Z,62.96
2017-09-02T16:00:02.445Z,63.24
2017-09-02T16:05:02.780Z,61.35
2017-09-02T16:10:02.999Z,68.22
2017-09-02T16:15:02.255Z,67.13
2017-09-02T16:20:03.026Z,72.31
2017-09-02T16:25:02.280Z,73.47
2017-09-02T16:30:02.510Z,73.97
2017-09-02T16:35:02.932Z,75.65
2017-09-02T16:40:02.123Z,78.07
2017-09-02T16:45:02.403Z,78.37
2017-09-02T16:50:02.101Z,73.69
2017-09-02T16:55:02.353Z,72.42
2017-09-02T17:00:02.558Z,71.07
2017-09-02T17:05:02.193Z,72.11
2017-09-02T17:10:02.370Z,71.96
2017-09-02T17:15:02.645Z,72.61
2017-09-02T17:20:02.780Z,72.23
2017-09-02T17:25:02.044Z,72.79
2017-09-02T17:30:02.264Z,75.14
2017-09-02T17:35:02.455Z,74.95
2017-09-02T17:40:02.705Z,76.07
2017-09-02T17:45:02.943Z,77.28
2017-09-02T17:50:02.144Z,77.39
2017-09-02T17:55:02.329Z,77.79
2017-09-02T18:00:02.601Z,79.55
2017-09-02T18:05:02.333Z,78.93
2017-09-02T18:10:02.533Z,80
2017-09-02T18:15:02.838Z,82.6
2017-09-02T18:20:02.252Z,82.81
2017-09-02T18:25:02.473Z,83.08
2017-09-02T18:30:02.668Z,83.9
2017-09-02T18:35:02.276Z,84.04
2017-09-02T18:40:02.518Z,85.12
2017-09-02T18:45:02.753Z,84.96
2017-09-02T18:50:02.720Z,85.5
2017-09-02T18:55:02.946Z,86.87
2017-09-02T19:00:02.203Z,86.72
2017-09-02T19:05:02.185Z,86.46
2017-09-02T19:10:02.415Z,87.62
2017-09-02T19:15:02.637Z,87.56
2017-09-02T19:20:02.090Z,87.56
2017-09-02T19:25:02.350Z,88.44
2017-09-02T19:30:02.554Z,88.91
2017-09-02T19:35:02.973Z,89.51
2017-09-02T19:40:02.169Z,88.84
2017-09-02T19:45:02.382Z,88.84
2017-09-02T19:50:02.548Z,89.67
2017-09-02T19:55:02.738Z,89.11
2017-09-02T20:00:02.950Z,89.75
2017-09-02T20:05:02.819Z,89.96
2017-09-02T20:10:03.033Z,90.21
2017-09-02T20:15:02.268Z,90.52
2017-09-02T20:20:02.775Z,90.89
2017-09-02T20:25:02.982Z,90.87
2017-09-02T20:30:02.253Z,91.11
2017-09-02T20:35:02.504Z,91.04
2017-09-02T20:40:02.684Z,91.32
2017-09-02T20:45:02.881Z,91.45
2017-09-02T20:50:02.632Z,92.08
2017-09-02T20:55:02.805Z,91.72
2017-09-02T21:00:03.015Z,91.71
2017-09-02T21:05:02.934Z,92.25
2017-09-02T21:10:02.135Z,92.77
2017-09-02T21:15:02.413Z,92.73
2017-09-02T21:20:02.737Z,92.82
2017-09-02T21:25:02.986Z,92.6
2017-09-02T21:30:02.195Z,92.69
2017-09-02T21:35:02.850Z,93.12
2017-09-02T21:40:02.053Z,93.32
2017-09-02T21:45:02.298Z,93.37
2017-09-02T21:50:02.777Z,93.38
2017-09-02T21:55:02.957Z,93.52
2017-09-02T22:00:02.462Z,93.54
2017-09-02T22:05:02.971Z,93.67
2017-09-02T22:10:02.318Z,93.51
2017-09-02T22:15:02.700Z,94.28
2017-09-02T22:20:02.406Z,94.61
2017-09-02T22:25:02.823Z,94.02
2017-09-02T22:30:02.169Z,94.61
2017-09-02T22:35:02.444Z,95.21
2017-09-02T22:40:02.792Z,95.11
2017-09-02T22:45:02.138Z,95.45
2017-09-02T22:50:02.504Z,94.97
2017-09-02T22:55:02.901Z,94.87
2017-09-02T23:00:02.313Z,94.6
2017-09-02T23:05:02.916Z,94.59
2017-09-02T23:10:02.103Z,94.96
2017-09-02T23:15:02.365Z,94.6
2017-09-02T23:20:02.026Z,95.23
2017-09-02T23:25:02.278Z,95.01
2017-09-02T23:30:02.484Z,95.7
2017-09-02T23:35:02.469Z,96.32
2017-09-02T23:40:02.671Z,96.88
2017-09-02T23:45:02.952Z,96.79
2017-09-02T23:50:02.653Z,96.8
2017-09-02T23:55:02.883Z,96.44
